Pagina principală
METAR-TAF:

METAR-TAF

Aeroporturi :

São Paulo, São Paulo, Brazilia

Latitudine: 23-31S, longitudine: 046-38W, elevație: 722 m

Observații meteo curente

Raportul a fost făcut în urmă cu 29 de minute, la 15:00 UTC
Vânt 3 kt de la Est, variabil între Nord-est și Sud
Temperatură 20°C
Umiditate 60%
Presiune 1027 hPa
Vizibilitate de 10 km sau mai mult
nu există nori sub 1.500 m și nici cumulonimbus

METAR: SBMT 171500Z 10003KT 040V180 CAVOK 20/12 Q1027

Ora: 12:29 (15:29 UTC)


TAF: lipsă

Observații și prognoze meteo pentru peste 4.000 de aeroporturi (rapoarte METAR și TAF).

Stațiile disponibile sunt reprezentate pe hartă prin puncte galbene și roșii.

Țineți indicatorul mouse-ului pe punctul dorit pentru a vedea denumirea stației.

Apoi, faceți clic pentru a vedea observațiile și prognozele meteorologice.

Pentru a schimba harta: Pentru mărire, faceți clic pe butoanele verzi cu cruce neagră; pentru micșorare, pe butonul verde cu o liniuță; pentru hărți învecinate, pe săgețile verzi.


METAR-TAF: